KWRB/WRB METAR and TAF weather

Enter ICAO airport designator
Station Type Date Time Source
KWRB METAR 2023/06/03 01:55 UTC NOAA

KWRB 030155Z AUTO 00000KT 10SM CLR 22/17 A2982 RMK AO2 SLP098 T02150173


Station Type Date Time Source
KWRB Decoded METAR 2023/06/03 01:55 UTC NOAA

Warner Robins Air Force Base, GA, United States (KWRB) 32-38N 083-36W
Jun 02, 2023 - 09:55 PM EDT / 2023.06.03 0155 UTC
Wind: Calm:0
Visibility: 10 mile(s):0
Sky conditions: clear
Temperature: 70.7 F (21.5 C)
Dew Point: 63.1 F (17.3 C)
Relative Humidity: 76%
Pressure (altimeter): 29.82 in. Hg (1009 hPa)
ob: KWRB 030155Z AUTO 00000KT 10SM CLR 22/17 A2982 RMK AO2 SLP098 T02150173
cycle: 2

Station Type Date Time Source
KWRB TAF 2023/06/03 00:33 UTC NOAA

TAF TAF KWRB 030000Z 0300/0406 05006KT 9999 FEW040 SCT080 QNH2979INS
BECMG 0306/0307 35006KT 9999 SCT030 SCT060 QNH2882INS
BECMG 0314/0315 03010G15KT 9999 BKN050 QNH2980INS TX30/0321Z TN18/0311Z

Example: see airport list